Time;durP1;ratioP1;P1;durP2;ratioP2;P2;SDS_P1;SDS_P2;PMS_P1;PMS_P2;Temp;Humidity;BMP_temperature;BMP_pressure;BME280_temperature;BME280_humidity;BME280_pressure;Samples;Min_cycle;Max_cycle;Signal;HPM_P1;HPM_P2
2023/05/15 00:01:32;;;;;;;;;2.00;2.00;;;;;22.79;36.24;100553.83;110222;1265;18567;-40
2023/05/15 00:04:00;;;;;;;;;1.00;1.00;;;;;22.78;36.34;100550.55;110234;1250;22921;-41
2023/05/15 00:06:28;;;;;;;;;1.00;1.00;;;;;22.79;36.15;100550.14;110190;1265;18398;-41
2023/05/15 00:08:55;;;;;;;;;1.00;1.00;;;;;22.79;36.38;100550.27;110196;1249;19896;-40
2023/05/15 00:11:22;;;;;;;;;2.00;2.00;;;;;22.79;36.22;100549.01;110265;1265;19374;-40
2023/05/15 00:13:50;;;;;;;;;1.00;1.00;;;;;22.79;36.24;100542.66;110221;1266;19789;-40
2023/05/15 00:16:17;;;;;;;;;1.00;1.00;;;;;22.79;36.21;100540.77;110258;1265;18567;-40
2023/05/15 00:18:44;;;;;;;;;2.00;2.00;;;;;22.79;36.32;100539.89;110293;1265;19262;-39
2023/05/15 00:21:12;;;;;;;;;1.00;1.00;;;;;22.79;36.41;100538.41;110286;1251;21010;-40
2023/05/15 00:23:39;;;;;;;;;1.00;1.00;;;;;22.78;36.23;100532.36;110271;1251;20067;-40
2023/05/15 00:26:06;;;;;;;;;1.00;1.00;;;;;22.79;36.43;100526.94;110296;1250;21085;-39
2023/05/15 00:28:34;;;;;;;;;1.00;1.00;;;;;22.79;36.47;100523.66;110265;1266;19624;-43
2023/05/15 00:31:01;;;;;;;;;1.00;1.00;;;;;22.80;36.24;100523.45;110282;1265;18630;-40
2023/05/15 00:33:28;;;;;;;;;4.00;2.00;;;;;22.80;36.38;100522.86;110265;1251;20664;-41
2023/05/15 00:35:56;;;;;;;;;3.00;2.00;;;;;22.80;36.32;100518.70;110258;1265;18282;-42
2023/05/15 00:38:23;;;;;;;;;1.00;1.00;;;;;22.79;36.48;100519.50;110275;1259;19916;-40
2023/05/15 00:40:50;;;;;;;;;1.00;1.00;;;;;22.79;36.40;100516.18;110266;1265;19811;-41
2023/05/15 00:43:17;;;;;;;;;1.00;1.00;;;;;22.79;36.40;100514.41;110284;1251;19480;-40
2023/05/15 00:45:45;;;;;;;;;1.00;1.00;;;;;22.79;36.42;100510.77;110145;1265;128193;-41
2023/05/15 00:48:12;;;;;;;;;1.00;1.00;;;;;22.80;36.50;100508.27;110232;1260;20745;-40
2023/05/15 00:50:41;;;;;;;;;2.00;1.00;;;;;22.80;36.59;100505.04;110214;1251;19629;-41
2023/05/15 00:53:08;;;;;;;;;1.00;1.00;;;;;22.80;36.31;100503.77;110283;1251;20181;-41
2023/05/15 00:55:35;;;;;;;;;1.00;1.00;;;;;22.79;36.35;100500.92;110263;1265;22017;-41
2023/05/15 00:58:03;;;;;;;;;2.00;1.00;;;;;22.80;36.42;100499.40;110186;1249;18288;-40
2023/05/15 01:00:30;;;;;;;;;1.00;1.00;;;;;22.79;36.45;100493.82;110025;1254;20002;-44
2023/05/15 01:02:57;;;;;;;;;1.00;1.00;;;;;22.79;36.34;100490.20;110049;1254;20767;-40
2023/05/15 01:05:25;;;;;;;;;2.00;2.00;;;;;22.79;36.44;100488.02;110047;1266;18413;-40
2023/05/15 01:07:52;;;;;;;;;1.00;1.00;;;;;22.79;36.36;100484.14;110049;1266;18622;-41
2023/05/15 01:10:19;;;;;;;;;1.00;1.00;;;;;22.78;36.57;100482.45;110048;1266;19376;-41
2023/05/15 01:12:47;;;;;;;;;1.00;1.00;;;;;22.78;36.54;100479.13;110016;1266;23014;-41
2023/05/15 01:15:14;;;;;;;;;1.00;1.00;;;;;22.79;36.40;100479.81;110034;1266;18622;-40
2023/05/15 01:17:41;;;;;;;;;1.00;1.00;;;;;22.79;36.62;100484.30;110054;1266;19513;-40
2023/05/15 01:20:09;;;;;;;;;2.00;2.00;;;;;22.79;36.41;100479.56;110018;1251;19527;-40
2023/05/15 01:22:36;;;;;;;;;1.00;1.00;;;;;22.79;36.67;100475.98;110039;1260;20106;-40
2023/05/15 01:25:04;;;;;;;;;1.00;1.00;;;;;22.79;36.55;100474.55;110043;1250;19369;-41
2023/05/15 01:27:32;;;;;;;;;1.00;1.00;;;;;22.80;36.39;100473.17;110060;1251;22806;-41
2023/05/15 01:29:59;;;;;;;;;1.00;1.00;;;;;22.80;36.66;100471.33;110051;1266;18732;-43
2023/05/15 01:32:27;;;;;;;;;1.00;1.00;;;;;22.80;36.55;100468.77;110028;1266;19255;-39
2023/05/15 01:34:54;;;;;;;;;1.00;1.00;;;;;22.79;36.51;100465.19;110020;1266;18421;-40
2023/05/15 01:37:21;;;;;;;;;2.00;2.00;;;;;22.79;36.44;100465.77;110040;1251;18711;-39
2023/05/15 01:39:49;;;;;;;;;1.00;1.00;;;;;22.80;36.56;100457.49;110042;1254;20876;-40
2023/05/15 01:42:16;;;;;;;;;1.00;1.00;;;;;22.79;36.58;100455.35;110050;1266;18374;-39
2023/05/15 01:44:43;;;;;;;;;1.00;1.00;;;;;22.79;36.75;100453.25;110023;1253;20035;-40
2023/05/15 01:47:10;;;;;;;;;1.00;1.00;;;;;22.80;36.72;100447.65;110038;1266;19333;-40
2023/05/15 01:49:38;;;;;;;;;2.00;2.00;;;;;22.79;36.66;100447.15;110024;1260;22645;-39
2023/05/15 01:52:05;;;;;;;;;1.00;1.00;;;;;22.79;36.71;100452.58;110011;1266;20138;-41
2023/05/15 01:54:33;;;;;;;;;2.00;2.00;;;;;22.79;36.55;100461.02;110076;1250;20644;-39
2023/05/15 01:57:00;;;;;;;;;1.00;1.00;;;;;22.80;36.59;100460.35;110028;1266;18375;-40
2023/05/15 01:59:27;;;;;;;;;1.33;1.33;;;;;22.79;36.54;100446.40;110150;1265;19780;-40
2023/05/15 02:01:55;;;;;;;;;1.00;1.00;;;;;22.79;36.70;100433.58;110259;1249;22178;-40
2023/05/15 02:04:22;;;;;;;;;1.00;1.00;;;;;22.79;36.85;100433.23;110263;1260;19639;-39
2023/05/15 02:06:49;;;;;;;;;1.00;1.00;;;;;22.79;36.68;100437.19;110141;1260;20074;-39
2023/05/15 02:09:17;;;;;;;;;1.00;1.00;;;;;22.79;36.71;100438.11;110258;1265;19375;-40
2023/05/15 02:11:44;;;;;;;;;1.00;1.00;;;;;22.79;36.68;100428.45;110217;1265;18556;-40
2023/05/15 02:14:11;;;;;;;;;;;;;;;22.79;36.65;100423.86;110244;1251;19981;-40
2023/05/15 02:16:39;;;;;;;;;1.00;1.00;;;;;22.79;36.74;100423.86;110246;1251;20764;-40
2023/05/15 02:19:06;;;;;;;;;1.00;1.00;;;;;22.79;36.76;100426.67;110212;1265;18495;-40
2023/05/15 02:21:33;;;;;;;;;1.00;1.00;;;;;22.78;36.66;100417.42;110223;1251;18573;-40
2023/05/15 02:24:01;;;;;;;;;1.00;1.00;;;;;22.78;36.79;100411.59;110237;1265;20693;-40
2023/05/15 02:26:28;;;;;;;;;1.00;1.00;;;;;22.78;36.60;100411.21;110219;1251;22731;-40
2023/05/15 02:28:55;;;;;;;;;1.00;1.00;;;;;22.79;36.81;100407.73;110215;1251;20058;-41
2023/05/15 02:31:23;;;;;;;;;1.00;1.00;;;;;22.78;36.63;100405.53;110213;1251;20780;-40
2023/05/15 02:33:50;;;;;;;;;1.00;1.00;;;;;22.78;36.88;100399.46;110203;1251;22671;-42
2023/05/15 02:36:18;;;;;;;;;1.00;1.00;;;;;22.78;36.69;100395.02;110188;1251;20078;-39
2023/05/15 02:38:45;;;;;;;;;1.00;1.00;;;;;22.78;36.78;100391.75;110236;1266;22305;-43
2023/05/15 02:41:12;;;;;;;;;1.00;1.00;;;;;22.78;36.70;100385.90;110207;1251;19628;-40
2023/05/15 02:43:39;;;;;;;;;1.00;1.00;;;;;22.79;36.77;100384.39;110225;1251;21203;-40
2023/05/15 02:46:07;;;;;;;;;1.00;1.00;;;;;22.78;36.78;100377.58;110218;1251;20642;-41
2023/05/15 02:48:34;;;;;;;;;1.00;1.00;;;;;22.78;36.76;100366.09;110299;1265;19554;-40
2023/05/15 02:51:02;;;;;;;;;2.00;2.00;;;;;22.78;36.70;100370.27;110264;1257;18639;-40
2023/05/15 02:53:29;;;;;;;;;2.00;1.00;;;;;22.79;36.72;100367.48;110266;1265;19516;-41
2023/05/15 02:55:56;;;;;;;;;2.00;2.00;;;;;22.77;36.81;100358.31;110281;1265;18406;-39
2023/05/15 02:58:23;;;;;;;;;2.00;1.00;;;;;22.77;36.73;100357.23;110206;1251;20057;-39
2023/05/15 03:00:51;;;;;;;;;2.00;2.00;;;;;22.77;36.84;100364.54;110237;1251;20705;-39
2023/05/15 03:03:18;;;;;;;;;1.00;1.00;;;;;22.77;36.85;100361.25;110250;1259;18380;-40
2023/05/15 03:05:45;;;;;;;;;1.00;1.00;;;;;22.78;36.94;100354.48;110221;1265;21440;-39
2023/05/15 03:08:13;;;;;;;;;1.50;1.50;;;;;22.78;36.94;100351.17;110217;1260;20748;-39
2023/05/15 03:10:40;;;;;;;;;1.00;1.00;;;;;22.78;36.71;100349.20;110163;1260;19487;-40
2023/05/15 03:13:07;;;;;;;;;1.00;1.00;;;;;22.77;36.74;100340.53;110277;1251;20346;-39
2023/05/15 03:15:35;;;;;;;;;1.00;1.00;;;;;22.78;36.93;100335.52;110262;1250;20720;-40
2023/05/15 03:18:02;;;;;;;;;1.00;1.00;;;;;22.78;36.68;100332.80;110267;1251;19690;-39
2023/05/15 03:20:29;;;;;;;;;1.00;1.00;;;;;22.77;36.87;100335.19;110240;1251;20325;-39
2023/05/15 03:22:57;;;;;;;;;1.00;1.00;;;;;22.78;36.96;100342.05;110166;1265;19546;-39
2023/05/15 03:25:24;;;;;;;;;2.00;1.00;;;;;22.78;36.89;100341.14;110200;1265;18402;-39
2023/05/15 03:27:51;;;;;;;;;1.00;1.00;;;;;22.78;36.95;100336.20;110204;1265;22274;-39
2023/05/15 03:30:19;;;;;;;;;1.67;1.67;;;;;22.78;36.85;100337.70;110201;1249;20748;-42
2023/05/15 03:32:46;;;;;;;;;1.00;1.00;;;;;22.79;36.95;100343.79;110193;1259;19685;-41
2023/05/15 03:35:13;;;;;;;;;1.00;1.00;;;;;22.78;36.91;100334.20;110198;1265;18605;-38
2023/05/15 03:37:41;;;;;;;;;1.00;1.00;;;;;22.79;36.98;100330.30;110208;1251;21182;-39
2023/05/15 03:40:08;;;;;;;;;1.50;1.50;;;;;22.78;36.84;100325.42;110277;1265;20758;-39
2023/05/15 03:42:35;;;;;;;;;1.00;1.00;;;;;22.78;36.97;100321.80;110301;1251;18600;-40
2023/05/15 03:45:03;;;;;;;;;1.00;1.00;;;;;22.78;36.83;100316.02;110273;1265;19392;-39
2023/05/15 03:47:30;;;;;;;;;1.00;1.00;;;;;22.78;36.99;100314.35;110269;1260;19498;-46
2023/05/15 03:49:57;;;;;;;;;1.50;1.00;;;;;22.79;36.99;100316.63;110292;1265;19928;-39
2023/05/15 03:52:25;;;;;;;;;1.00;1.00;;;;;22.78;36.90;100315.04;110295;1250;19355;-39
2023/05/15 03:54:52;;;;;;;;;1.00;1.00;;;;;22.78;36.88;100313.67;110269;1257;18362;-40
2023/05/15 03:57:19;;;;;;;;;1.00;1.00;;;;;22.78;37.00;100310.70;110254;1251;20056;-40
2023/05/15 03:59:46;;;;;;;;;1.00;1.00;;;;;22.78;36.96;100305.23;110247;1265;19228;-40
2023/05/15 04:02:14;;;;;;;;;2.00;2.00;;;;;22.78;36.89;100306.29;110245;1250;19615;-40
2023/05/15 04:04:43;;;;;;;;;1.00;1.00;;;;;22.79;36.86;100307.00;110183;1265;18621;-40
2023/05/15 04:07:10;;;;;;;;;1.00;1.00;;;;;22.79;36.95;100306.59;110229;1251;20912;-40
2023/05/15 04:09:38;;;;;;;;;1.00;1.00;;;;;22.79;37.11;100302.97;110277;1249;19682;-39
2023/05/15 04:12:06;;;;;;;;;2.00;1.00;;;;;22.79;36.84;100298.59;110262;1260;18599;-40
2023/05/15 04:14:33;;;;;;;;;1.00;1.00;;;;;22.78;36.90;100292.50;110198;1251;22094;-40
2023/05/15 04:17:00;;;;;;;;;1.00;1.00;;;;;22.78;37.04;100294.27;110193;1251;19719;-40
2023/05/15 04:19:28;;;;;;;;;1.00;1.00;;;;;22.79;37.00;100294.21;110227;1265;18759;-40
2023/05/15 04:21:55;;;;;;;;;1.00;1.00;;;;;22.78;36.84;100289.73;110226;1249;21138;-41
2023/05/15 04:24:23;;;;;;;;;1.00;1.00;;;;;22.79;37.13;100288.55;110234;1251;19605;-40
2023/05/15 04:26:50;;;;;;;;;1.00;1.00;;;;;22.79;37.04;100287.97;110288;1250;21407;-41
2023/05/15 04:29:18;;;;;;;;;1.00;1.00;;;;;22.79;37.05;100280.91;110280;1251;19331;-40
2023/05/15 04:31:45;;;;;;;;;1.50;1.00;;;;;22.79;37.02;100286.74;110227;1260;20533;-41
2023/05/15 04:34:12;;;;;;;;;1.00;1.00;;;;;22.79;37.22;100290.23;110185;1251;20252;-40
2023/05/15 04:36:40;;;;;;;;;1.00;1.00;;;;;22.79;36.94;100288.72;110213;1250;24098;-39
2023/05/15 04:39:07;;;;;;;;;2.00;1.00;;;;;22.79;37.04;100290.90;110214;1251;19690;-40
2023/05/15 04:41:35;;;;;;;;;1.00;1.00;;;;;22.79;37.09;100294.23;110120;1265;18706;-46
2023/05/15 04:44:02;;;;;;;;;2.00;1.00;;;;;22.78;36.98;100299.94;110096;1259;20578;-40
2023/05/15 04:46:33;;;;;;;;;1.00;1.00;;;;;22.79;37.02;100300.95;110087;1265;18386;-40
2023/05/15 04:49:00;;;;;;;;;2.00;1.00;;;;;22.79;37.08;100297.09;110095;1251;21659;-41
2023/05/15 04:51:28;;;;;;;;;2.00;2.00;;;;;22.79;37.06;100286.20;110189;1260;20810;-40
2023/05/15 04:53:55;;;;;;;;;1.00;1.00;;;;;22.79;36.94;100285.98;110241;1249;19658;-42
2023/05/15 04:56:22;;;;;;;;;1.00;1.00;;;;;22.79;37.19;100285.65;110209;1265;18618;-40
2023/05/15 04:58:50;;;;;;;;;1.00;1.00;;;;;22.82;37.38;100289.42;110244;1251;20835;-39
2023/05/15 05:01:17;;;;;;;;;2.00;2.00;;;;;22.85;37.74;100289.05;110172;1257;18878;-40
2023/05/15 05:03:44;;;;;;;;;2.00;2.00;;;;;22.87;38.57;100293.36;110252;1250;20002;-41
2023/05/15 05:06:12;;;;;;;;;5.00;4.50;;;;;22.81;38.62;100310.96;110237;1251;20751;-42
2023/05/15 05:08:39;;;;;;;;;8.00;8.00;;;;;22.77;38.48;100320.56;110116;1265;18474;-41
2023/05/15 05:11:06;;;;;;;;;35.00;33.00;;;;;22.61;38.35;100309.62;110222;1265;18865;-41
2023/05/15 05:13:34;;;;;;;;;45.00;42.50;;;;;22.53;38.26;100304.92;110218;1260;20637;-41
2023/05/15 05:16:01;;;;;;;;;37.33;36.67;;;;;22.50;38.27;100308.27;110195;1250;21324;-40
2023/05/15 05:18:29;;;;;;;;;43.00;40.00;;;;;22.56;38.41;100308.70;110202;1251;20147;-41
2023/05/15 05:20:56;;;;;;;;;30.67;29.33;;;;;22.50;38.58;100307.56;110186;1251;22400;-40
2023/05/15 05:23:24;;;;;;;;;28.50;28.50;;;;;22.49;38.82;100311.04;110259;1251;20010;-40
2023/05/15 05:25:51;;;;;;;;;30.00;29.00;;;;;22.42;38.63;100307.24;110283;1251;20190;-41
2023/05/15 05:28:18;;;;;;;;;28.00;26.00;;;;;22.32;39.12;100298.72;110238;1260;20742;-42
2023/05/15 05:30:46;;;;;;;;;21.33;21.00;;;;;22.34;39.29;100299.70;110245;1250;19904;-41
2023/05/15 05:33:13;;;;;;;;;21.00;21.00;;;;;22.34;39.03;100304.99;110225;1265;21142;-41
2023/05/15 05:35:40;;;;;;;;;19.00;19.00;;;;;22.23;39.29;100310.20;110216;1265;20761;-44
2023/05/15 05:38:08;;;;;;;;;17.50;17.00;;;;;21.99;39.83;100309.12;110167;1251;20109;-41
2023/05/15 05:40:36;;;;;;;;;17.50;16.00;;;;;21.90;40.00;100308.18;110205;1251;19985;-41
2023/05/15 05:43:04;;;;;;;;;15.00;15.00;;;;;21.88;40.10;100313.49;110230;1251;20782;-41
2023/05/15 05:45:31;;;;;;;;;18.00;17.00;;;;;21.90;40.14;100314.73;110227;1251;19943;-40
2023/05/15 05:47:58;;;;;;;;;15.50;14.50;;;;;21.94;40.22;100314.27;110198;1251;18819;-41
2023/05/15 05:50:26;;;;;;;;;18.00;18.00;;;;;21.99;40.10;100317.48;110220;1251;20801;-40
2023/05/15 05:52:53;;;;;;;;;17.00;17.00;;;;;22.01;40.11;100312.90;110266;1260;19843;-40
2023/05/15 05:55:20;;;;;;;;;17.00;15.00;;;;;21.79;40.44;100318.83;110189;1265;18713;-41
2023/05/15 05:57:48;;;;;;;;;15.00;15.00;;;;;21.53;41.09;100315.77;110239;1259;22232;-40
2023/05/15 06:00:15;;;;;;;;;15.00;15.00;;;;;21.52;41.16;100307.91;110171;1251;19959;-40
2023/05/15 06:02:42;;;;;;;;;21.00;20.00;;;;;21.56;41.10;100309.78;110172;1251;19903;-39
2023/05/15 06:05:10;;;;;;;;;14.00;14.00;;;;;21.58;41.16;100310.41;110219;1251;20792;-39
2023/05/15 06:07:37;;;;;;;;;20.00;17.00;;;;;21.68;41.02;100313.88;110212;1251;20116;-40
2023/05/15 06:10:06;;;;;;;;;17.00;17.00;;;;;21.54;41.55;100318.62;110230;1251;20144;-40
2023/05/15 06:12:33;;;;;;;;;14.50;14.00;;;;;21.30;42.07;100315.23;110237;1250;20788;-40
2023/05/15 06:15:01;;;;;;;;;18.00;15.00;;;;;21.31;42.13;100313.38;110235;1265;18582;-41
2023/05/15 06:17:28;;;;;;;;;18.33;17.33;;;;;21.31;42.33;100312.17;110256;1265;18780;-41
2023/05/15 06:19:55;;;;;;;;;17.50;16.50;;;;;21.23;42.65;100309.76;110226;1251;20753;-41
2023/05/15 06:22:23;;;;;;;;;19.00;17.50;;;;;21.16;43.01;100307.81;110276;1251;20055;-40
2023/05/15 06:24:50;;;;;;;;;18.00;17.00;;;;;21.10;43.13;100310.38;110246;1259;20224;-40
2023/05/15 06:27:17;;;;;;;;;17.00;16.50;;;;;21.27;42.79;100300.08;110259;1260;20623;-40
2023/05/15 06:29:44;;;;;;;;;18.00;18.00;;;;;21.30;42.75;100298.36;110250;1251;20081;-44
2023/05/15 06:32:12;;;;;;;;;17.50;17.00;;;;;21.42;42.78;100287.57;110190;1265;19059;-40
2023/05/15 06:34:39;;;;;;;;;18.33;17.00;;;;;21.48;42.58;100269.94;110256;1265;20882;-41
2023/05/15 06:37:06;;;;;;;;;23.00;18.00;;;;;21.59;42.47;100272.70;110240;1265;19920;-41
2023/05/15 06:39:34;;;;;;;;;18.00;18.00;;;;;21.51;42.73;100264.60;110250;1260;20109;-41
2023/05/15 06:42:01;;;;;;;;;15.00;14.00;;;;;21.54;42.77;100259.81;110230;1260;20655;-41
2023/05/15 06:44:28;;;;;;;;;17.00;15.00;;;;;21.55;42.90;100252.20;110187;1265;18952;-44
2023/05/15 06:46:56;;;;;;;;;18.00;18.00;;;;;21.61;42.78;100241.34;110256;1260;22783;-41
2023/05/15 06:49:23;;;;;;;;;17.00;17.00;;;;;21.58;43.01;100237.40;110246;1265;19364;-40
2023/05/15 06:51:50;;;;;;;;;14.00;14.00;;;;;21.53;43.04;100237.45;110163;1265;19951;-41
2023/05/15 06:54:18;;;;;;;;;17.00;17.00;;;;;21.46;43.32;100230.73;110251;1251;21102;-41
2023/05/15 06:56:45;;;;;;;;;19.00;16.00;;;;;21.34;43.85;100228.88;110260;1251;20785;-41
2023/05/15 06:59:12;;;;;;;;;20.00;18.00;;;;;20.94;45.02;100224.95;110245;1265;18622;-41
2023/05/15 07:01:40;;;;;;;;;20.00;18.00;;;;;20.79;46.00;100218.72;110211;1260;20281;-41
2023/05/15 07:04:07;;;;;;;;;17.00;17.00;;;;;20.94;46.05;100216.15;110273;1260;22010;-41
2023/05/15 07:06:35;;;;;;;;;20.00;19.50;;;;;21.04;46.10;100212.80;110281;1266;18624;-39
2023/05/15 07:09:03;;;;;;;;;20.00;19.00;;;;;20.99;46.42;100208.96;110288;1265;18741;-41
2023/05/15 07:11:32;;;;;;;;;20.00;19.00;;;;;20.97;46.57;100200.55;110290;1251;20797;-43
2023/05/15 07:14:00;;;;;;;;;17.00;17.00;;;;;20.98;46.93;100198.35;110273;1257;19954;-41
2023/05/15 07:16:28;;;;;;;;;17.00;17.00;;;;;21.06;46.71;100199.67;110260;1251;20123;-41
2023/05/15 07:18:55;;;;;;;;;21.00;20.00;;;;;21.13;46.52;100190.85;110296;1265;19371;-41
2023/05/15 07:21:22;;;;;;;;;16.50;16.00;;;;;21.19;46.79;100185.75;110263;1266;22138;-41
2023/05/15 07:23:50;;;;;;;;;16.00;16.00;;;;;21.36;46.18;100181.09;110279;1250;19108;-43
2023/05/15 07:26:17;;;;;;;;;16.00;16.00;;;;;21.37;45.77;100182.15;110273;1265;19350;-41
2023/05/15 07:28:44;;;;;;;;;15.00;13.00;;;;;21.41;45.83;100175.02;110195;1251;19956;-41
2023/05/15 07:31:12;;;;;;;;;17.00;16.00;;;;;21.37;45.96;100171.28;110155;1251;22196;-41
2023/05/15 07:33:39;;;;;;;;;14.00;14.00;;;;;21.34;45.94;100170.23;110230;1265;19416;-41
2023/05/15 07:36:07;;;;;;;;;18.00;17.00;;;;;21.43;45.91;100163.77;110258;1251;20075;-41
2023/05/15 07:38:34;;;;;;;;;18.00;18.00;;;;;21.47;46.00;100157.55;110288;1251;20132;-41
2023/05/15 07:41:01;;;;;;;;;21.00;18.00;;;;;21.51;45.84;100154.58;110224;1250;22239;-41
2023/05/15 07:43:28;;;;;;;;;15.00;14.50;;;;;21.56;45.67;100149.11;110228;1260;19977;-43
2023/05/15 07:45:56;;;;;;;;;16.33;16.33;;;;;21.64;45.61;100143.39;110211;1260;20082;-41
2023/05/15 07:48:23;;;;;;;;;18.00;16.00;;;;;21.68;45.67;100142.05;110281;1251;21050;-41
2023/05/15 07:50:52;;;;;;;;;18.00;17.00;;;;;21.56;45.83;100133.81;110235;1265;18566;-41
2023/05/15 07:53:20;;;;;;;;;15.00;15.00;;;;;21.55;46.13;100133.69;110250;1251;20163;-41
2023/05/15 07:55:48;;;;;;;;;18.00;17.50;;;;;21.52;46.23;100130.30;110236;1251;20727;-41
2023/05/15 07:58:16;;;;;;;;;15.00;15.00;;;;;21.56;46.10;100129.41;110178;1265;18602;-41
2023/05/15 08:00:43;;;;;;;;;16.00;16.00;;;;;21.61;46.11;100126.98;110167;1266;18890;-40
2023/05/15 08:03:11;;;;;;;;;14.00;14.00;;;;;21.65;46.18;100122.34;110205;1251;22247;-41
2023/05/15 08:05:38;;;;;;;;;17.00;15.00;;;;;21.60;46.33;100115.80;110220;1265;18555;-39
2023/05/15 08:08:06;;;;;;;;;17.00;15.67;;;;;21.50;46.40;100108.38;110207;1251;19972;-40
2023/05/15 08:10:33;;;;;;;;;20.00;15.00;;;;;21.48;46.67;100108.91;110272;1257;22710;-38
2023/05/15 08:13:00;;;;;;;;;13.00;13.00;;;;;21.56;46.53;100104.02;110293;1265;18849;-40
2023/05/15 08:15:28;;;;;;;;;15.00;15.00;;;;;21.62;46.29;100100.70;110214;1251;21394;-40
2023/05/15 08:17:55;;;;;;;;;15.00;14.00;;;;;21.52;46.64;100104.16;110226;1251;20819;-43
2023/05/15 08:20:22;;;;;;;;;12.00;12.00;;;;;21.49;47.00;100099.44;110243;1251;22322;-39
2023/05/15 08:22:50;;;;;;;;;18.00;17.00;;;;;21.56;46.64;100095.59;110199;1266;18725;-41
2023/05/15 08:25:17;;;;;;;;;18.00;17.00;;;;;21.30;47.01;100105.46;110241;1251;22130;-40
2023/05/15 08:27:44;;;;;;;;;14.00;13.00;;;;;21.30;47.17;100102.17;110230;1251;20022;-40
2023/05/15 08:30:12;;;;;;;;;18.00;17.00;;;;;21.50;46.74;100093.36;110239;1251;22056;-41
2023/05/15 08:32:39;;;;;;;;;21.00;18.00;;;;;21.54;46.29;100088.73;110206;1265;19361;-40
2023/05/15 08:35:06;;;;;;;;;19.67;17.00;;;;;21.23;46.89;100087.17;110291;1265;18593;-40
2023/05/15 08:37:34;;;;;;;;;18.00;17.00;;;;;21.16;47.03;100085.85;110195;1260;21402;-41
2023/05/15 08:40:04;;;;;;;;;19.00;16.50;;;;;21.24;46.91;100084.26;110213;1260;20638;-41
2023/05/15 08:42:31;;;;;;;;;16.00;14.00;;;;;21.19;46.97;100073.65;110185;1251;20028;-41
2023/05/15 08:44:58;;;;;;;;;18.50;18.50;;;;;21.17;46.77;100080.58;110266;1251;19152;-42
2023/05/15 08:47:26;;;;;;;;;15.00;15.00;;;;;21.01;47.05;100079.63;110253;1265;19359;-41
2023/05/15 08:49:53;;;;;;;;;19.00;16.67;;;;;21.01;46.94;100077.71;110277;1260;19891;-40
2023/05/15 08:52:20;;;;;;;;;19.00;19.00;;;;;20.80;47.18;100078.95;110276;1251;21401;-41
2023/05/15 08:54:48;;;;;;;;;19.00;17.00;;;;;20.79;47.32;100085.98;110246;1265;19263;-41
2023/05/15 08:57:15;;;;;;;;;17.00;16.00;;;;;20.96;47.07;100082.69;110175;1265;18596;-40
2023/05/15 08:59:42;;;;;;;;;15.00;15.00;;;;;20.88;47.04;100081.72;110162;1251;20147;-40
2023/05/15 09:02:09;;;;;;;;;18.00;16.00;;;;;20.67;47.77;100083.88;110203;1251;20877;-41
2023/05/15 09:04:37;;;;;;;;;17.00;17.00;;;;;20.60;47.98;100081.26;110200;1251;20073;-40
2023/05/15 09:07:04;;;;;;;;;17.00;16.00;;;;;20.70;48.04;100075.54;110223;1251;20164;-41
2023/05/15 09:09:31;;;;;;;;;18.00;16.00;;;;;20.98;47.57;100076.33;110191;1251;20751;-41
2023/05/15 09:11:59;;;;;;;;;;;;;;;21.01;47.42;100071.52;110235;1251;22621;-43
2023/05/15 09:14:26;;;;;;;;;17.33;17.00;;;;;20.87;47.97;100073.14;110241;1265;18598;-41
2023/05/15 09:16:53;;;;;;;;;16.00;16.00;;;;;20.80;48.44;100070.45;110256;1251;20723;-41
2023/05/15 09:19:21;;;;;;;;;22.00;17.00;;;;;20.82;48.46;100065.83;110288;1251;21532;-41
2023/05/15 09:21:48;;;;;;;;;;;;;;;20.65;49.01;100063.45;110242;1251;21423;-42
2023/05/15 09:24:16;;;;;;;;;19.50;17.00;;;;;20.66;49.14;100059.73;110219;1260;20680;-41
2023/05/15 09:26:43;;;;;;;;;20.00;19.00;;;;;20.80;49.04;100055.33;110232;1250;19304;-39
2023/05/15 09:29:10;;;;;;;;;23.00;20.00;;;;;20.86;48.87;100054.72;110207;1265;18853;-41
2023/05/15 09:31:38;;;;;;;;;20.33;19.00;;;;;20.56;49.57;100050.71;110181;1260;20734;-39
2023/05/15 09:34:05;;;;;;;;;22.00;20.00;;;;;20.68;49.53;100050.88;110179;1265;18573;-39
2023/05/15 09:36:32;;;;;;;;;19.00;16.00;;;;;20.84;49.36;100048.36;110231;1265;22882;-40
2023/05/15 09:39:00;;;;;;;;;19.50;19.50;;;;;20.50;50.09;100049.74;110198;1251;20715;-40
2023/05/15 09:41:27;;;;;;;;;22.00;20.00;;;;;20.28;50.74;100050.80;110197;1259;21119;-40
2023/05/15 09:43:55;;;;;;;;;24.50;19.50;;;;;20.24;50.95;100044.98;110212;1251;20270;-41
2023/05/15 09:46:22;;;;;;;;;22.00;21.00;;;;;20.23;51.09;100045.25;110176;1250;19306;-40
2023/05/15 09:48:50;;;;;;;;;24.00;22.00;;;;;20.27;50.83;100044.80;110178;1265;18701;-40
2023/05/15 09:51:17;;;;;;;;;24.50;21.00;;;;;20.22;51.16;100044.86;110219;1251;20226;-40
2023/05/15 09:53:45;;;;;;;;;22.00;21.00;;;;;20.23;51.15;100043.04;110220;1260;20773;-40
2023/05/15 09:56:12;;;;;;;;;19.00;18.50;;;;;20.29;50.91;100035.95;110198;1265;19905;-41
2023/05/15 09:58:40;;;;;;;;;21.00;21.00;;;;;20.23;51.41;100038.60;110250;1266;18723;-40
2023/05/15 10:01:07;;;;;;;;;16.00;16.00;;;;;20.30;51.39;100035.16;110210;1265;21930;-40
2023/05/15 10:03:35;;;;;;;;;20.50;18.50;;;;;20.17;51.59;100033.50;110184;1251;19996;-40
2023/05/15 10:06:03;;;;;;;;;22.67;21.33;;;;;20.16;51.81;100032.90;110181;1251;21937;-40
2023/05/15 10:08:30;;;;;;;;;18.00;18.00;;;;;20.27;51.45;100022.94;110165;1265;19244;-42
2023/05/15 10:10:58;;;;;;;;;27.00;24.00;;;;;20.37;51.14;100029.51;110216;1265;18597;-40
2023/05/15 10:13:25;;;;;;;;;25.00;19.00;;;;;20.07;51.89;100029.98;110219;1251;24132;-44
2023/05/15 10:15:52;;;;;;;;;22.00;21.00;;;;;20.09;52.05;100027.58;110168;1250;19479;-41
2023/05/15 10:18:20;;;;;;;;;21.67;21.33;;;;;19.87;52.47;100025.53;110166;1257;18542;-40
2023/05/15 10:20:47;;;;;;;;;22.33;21.67;;;;;20.03;52.47;100025.58;110203;1251;22607;-41
2023/05/15 10:23:14;;;;;;;;;22.00;22.00;;;;;19.96;52.84;100025.05;110226;1266;20724;-40
2023/05/15 10:25:41;;;;;;;;;24.00;19.00;;;;;20.10;52.90;100020.80;110195;1250;18531;-39
2023/05/15 10:28:09;;;;;;;;;22.67;21.00;;;;;20.06;53.06;100020.17;110170;1251;22841;-40
2023/05/15 10:30:36;;;;;;;;;18.00;16.00;;;;;20.07;53.15;100020.98;110141;1265;19382;-39
2023/05/15 10:33:04;;;;;;;;;22.00;19.00;;;;;20.07;52.87;100016.17;110210;1251;22653;-39
2023/05/15 10:35:31;;;;;;;;;23.00;21.50;;;;;19.95;53.38;100017.69;110265;1251;20028;-39
2023/05/15 10:37:59;;;;;;;;;20.00;20.00;;;;;19.96;53.29;100013.52;110267;1251;19803;-42
2023/05/15 10:40:26;;;;;;;;;19.00;19.00;;;;;20.08;53.36;100012.59;110229;1265;22306;-40
2023/05/15 10:42:53;;;;;;;;;21.00;19.00;;;;;20.10;53.08;100014.91;110245;1265;18862;-39
2023/05/15 10:45:21;;;;;;;;;23.00;21.50;;;;;19.97;53.49;100012.40;110159;1265;19463;-40
2023/05/15 10:47:48;;;;;;;;;20.33;20.33;;;;;19.93;53.63;100005.98;110197;1265;18591;-40
2023/05/15 10:50:15;;;;;;;;;19.00;18.00;;;;;20.14;53.37;100002.79;110197;1249;18700;-42
2023/05/15 10:52:43;;;;;;;;;22.00;19.00;;;;;20.15;53.45;100007.49;110221;1265;22296;-38
2023/05/15 10:55:10;;;;;;;;;24.00;24.00;;;;;20.16;53.21;100006.44;110209;1257;18634;-39
2023/05/15 10:57:37;;;;;;;;;18.00;18.00;;;;;19.95;53.78;100008.23;110239;1250;20136;-40
2023/05/15 11:00:06;;;;;;;;;22.00;19.00;;;;;20.20;53.27;100004.75;110172;1250;20711;-39
2023/05/15 11:02:33;;;;;;;;;22.00;22.00;;;;;20.12;53.38;100001.76;110131;1265;18588;-39
2023/05/15 11:05:01;;;;;;;;;21.67;21.00;;;;;20.04;53.83;100003.11;110104;1265;18941;-41
2023/05/15 11:07:28;;;;;;;;;19.00;18.00;;;;;19.72;54.46;100002.91;110204;1250;19523;-39
2023/05/15 11:09:55;;;;;;;;;20.00;20.00;;;;;19.78;54.61;100000.30;110258;1251;20024;-39